createdAt,value
2023-05-21T00:05:50.270Z,12.30
2023-05-21T00:08:53.674Z,12.90
2023-05-21T00:11:58.385Z,11.88
2023-05-21T00:15:01.450Z,11.48
2023-05-21T00:18:05.705Z,12.43
2023-05-21T00:21:09.727Z,13.13
2023-05-21T00:24:17.236Z,12.25
2023-05-21T00:27:18.882Z,11.65
2023-05-21T00:30:20.716Z,12.23
2023-05-21T00:33:30.918Z,13.05
2023-05-21T00:36:36.968Z,12.23
2023-05-21T00:39:40.708Z,12.10
2023-05-21T00:42:58.129Z,13.98
2023-05-21T00:46:00.928Z,11.80
2023-05-21T00:49:10.880Z,11.40
2023-05-21T00:52:16.848Z,12.15
2023-05-21T00:55:18.800Z,11.00
2023-05-21T00:58:21.637Z,11.73
2023-05-21T01:01:28.740Z,12.43
2023-05-21T01:04:31.584Z,11.95
2023-05-21T01:07:36.022Z,12.98
2023-05-21T01:10:44.482Z,12.02
2023-05-21T01:13:48.206Z,11.90
2023-05-21T01:16:50.600Z,11.80
2023-05-21T01:19:52.723Z,11.70
2023-05-21T01:22:55.891Z,11.45
2023-05-21T01:25:58.880Z,10.77
2023-05-21T01:29:00.444Z,12.25
2023-05-21T01:32:16.146Z,11.00
2023-05-21T01:35:22.587Z,10.13
2023-05-21T01:38:46.668Z,12.48
2023-05-21T01:42:04.679Z,10.77
2023-05-21T01:45:08.648Z,11.43
2023-05-21T01:48:19.860Z,10.70
2023-05-21T01:51:24.053Z,11.25
2023-05-21T01:54:28.634Z,9.95
2023-05-21T01:57:30.366Z,10.23
2023-05-21T02:00:34.586Z,12.63
2023-05-21T02:03:36.991Z,10.45
2023-05-21T02:06:44.804Z,11.68
2023-05-21T02:13:02.721Z,10.80
2023-05-21T02:16:05.186Z,11.82
2023-05-21T02:19:12.994Z,10.63
2023-05-21T02:25:41.920Z,11.48
2023-05-21T02:28:49.067Z,12.20
2023-05-21T02:31:53.420Z,11.52
2023-05-21T02:35:01.466Z,11.40
2023-05-21T02:38:04.771Z,11.85
2023-05-21T02:41:15.705Z,12.63
2023-05-21T02:44:18.982Z,12.35
2023-05-21T02:47:24.214Z,12.00
2023-05-21T02:53:51.412Z,11.20
2023-05-21T02:57:01.312Z,12.32
2023-05-21T03:00:04.008Z,11.48
2023-05-21T03:03:05.992Z,11.27
2023-05-21T03:06:10.026Z,11.07
2023-05-21T03:09:11.621Z,12.20
2023-05-21T03:12:15.974Z,12.15
2023-05-21T03:15:24.112Z,12.23
2023-05-21T03:18:35.978Z,12.38
2023-05-21T03:21:37.952Z,11.93
2023-05-21T03:24:47.121Z,12.55
2023-05-21T03:27:51.323Z,13.23
2023-05-21T03:31:12.891Z,11.23
2023-05-21T03:34:24.065Z,12.32
2023-05-21T03:37:26.161Z,11.45
2023-05-21T03:40:28.314Z,12.20
2023-05-21T03:43:29.941Z,11.35
2023-05-21T03:46:34.845Z,12.18
2023-05-21T03:49:43.005Z,11.55
2023-05-21T03:52:47.779Z,11.70
2023-05-21T03:55:55.030Z,12.57
2023-05-21T03:59:05.572Z,11.35
2023-05-21T04:02:07.680Z,12.93
2023-05-21T04:05:10.976Z,11.38
2023-05-21T04:08:12.603Z,11.20
2023-05-21T04:11:14.180Z,11.15
2023-05-21T04:14:15.982Z,11.63
2023-05-21T04:17:21.357Z,12.48
2023-05-21T04:20:23.172Z,12.63
2023-05-21T04:23:32.639Z,11.90
2023-05-21T04:26:53.304Z,12.02
2023-05-21T04:29:57.036Z,11.50
2023-05-21T04:33:17.236Z,11.98
2023-05-21T04:36:21.520Z,13.07
2023-05-21T04:39:23.119Z,12.60
2023-05-21T04:42:27.112Z,11.32
2023-05-21T04:45:47.445Z,12.55
2023-05-21T04:48:51.089Z,13.15
2023-05-21T04:52:08.381Z,11.77
2023-05-21T04:55:10.224Z,11.95
2023-05-21T04:58:11.844Z,11.77
2023-05-21T05:01:18.283Z,11.65
2023-05-21T05:04:24.254Z,12.02
2023-05-21T05:07:26.178Z,12.20
2023-05-21T05:10:27.764Z,11.93
2023-05-21T05:13:32.034Z,10.98
2023-05-21T05:16:34.163Z,12.48
2023-05-21T05:19:35.859Z,11.30
2023-05-21T05:22:37.756Z,12.48
2023-05-21T05:25:41.129Z,13.10
2023-05-21T05:28:43.866Z,13.63
2023-05-21T05:31:46.097Z,14.18
2023-05-21T05:34:50.051Z,14.93
2023-05-21T05:37:52.064Z,15.52
2023-05-21T05:40:53.827Z,16.13
2023-05-21T05:44:03.358Z,15.57
2023-05-21T05:47:13.915Z,16.52
2023-05-21T05:53:36.404Z,16.70
2023-05-21T05:56:37.979Z,17.00
2023-05-21T06:03:00.242Z,14.88
2023-05-21T06:06:05.216Z,18.23
2023-05-21T06:09:08.001Z,20.80
2023-05-21T06:12:15.889Z,16.88
2023-05-21T06:15:19.434Z,18.30
2023-05-21T06:18:27.113Z,19.02
2023-05-21T06:21:28.887Z,17.65
2023-05-21T06:24:30.830Z,17.25
2023-05-21T06:27:33.325Z,16.77
2023-05-21T06:30:36.616Z,16.35
2023-05-21T06:33:41.181Z,20.00
2023-05-21T06:36:51.317Z,18.27
2023-05-21T06:39:52.978Z,17.30
2023-05-21T06:42:58.407Z,16.98
2023-05-21T06:46:27.781Z,17.70
2023-05-21T06:49:29.671Z,17.05
2023-05-21T06:52:39.661Z,17.50
2023-05-21T06:55:53.843Z,18.00
2023-05-21T06:59:31.593Z,16.58
2023-05-21T07:02:35.753Z,18.30
2023-05-21T07:05:46.836Z,17.30
2023-05-21T07:08:49.843Z,17.58
2023-05-21T07:11:53.036Z,17.27
2023-05-21T07:14:54.762Z,19.25
2023-05-21T07:18:06.742Z,17.08
2023-05-21T07:21:09.265Z,16.20
2023-05-21T07:24:14.303Z,18.35
2023-05-21T07:30:33.647Z,18.93
2023-05-21T07:33:38.254Z,19.03
2023-05-21T07:36:42.919Z,17.02
2023-05-21T07:39:45.222Z,15.93
2023-05-21T07:42:49.856Z,17.23
2023-05-21T07:48:59.900Z,18.95
2023-05-21T07:52:10.617Z,17.13
2023-05-21T07:55:14.642Z,18.40
2023-05-21T07:58:21.153Z,21.15
2023-05-21T08:01:24.044Z,18.80
2023-05-21T08:04:26.309Z,18.77
2023-05-21T08:07:28.105Z,17.77
2023-05-21T08:10:29.707Z,17.27
2023-05-21T08:13:37.571Z,17.63
2023-05-21T08:16:42.434Z,17.88
2023-05-21T08:19:46.390Z,18.30
2023-05-21T08:22:50.478Z,18.75
2023-05-21T08:25:55.300Z,16.95
2023-05-21T08:28:57.234Z,16.50
2023-05-21T08:32:13.403Z,16.70
2023-05-21T08:41:56.546Z,17.33
2023-05-21T08:45:03.257Z,17.58
2023-05-21T08:48:08.723Z,17.85
2023-05-21T08:51:13.626Z,17.45
2023-05-21T08:54:22.941Z,17.98
2023-05-21T08:57:26.880Z,17.75
2023-05-21T09:00:34.533Z,18.20
2023-05-21T09:03:40.516Z,16.35
2023-05-21T09:06:46.513Z,17.50
2023-05-21T09:09:58.448Z,16.08
2023-05-21T09:13:03.656Z,14.70
2023-05-21T09:16:10.209Z,15.45
2023-05-21T09:19:12.056Z,16.90
2023-05-21T09:22:13.730Z,15.73
2023-05-21T09:25:17.783Z,17.92
2023-05-21T09:28:22.190Z,17.00
2023-05-21T09:31:28.318Z,16.48
2023-05-21T09:34:30.069Z,17.17
2023-05-21T09:37:39.644Z,18.35
2023-05-21T09:40:57.056Z,16.90
2023-05-21T09:44:03.574Z,16.05
2023-05-21T09:47:21.053Z,16.52
2023-05-21T09:50:24.639Z,16.65
2023-05-21T09:53:29.483Z,15.35
2023-05-21T09:59:50.656Z,15.07
2023-05-21T10:02:56.992Z,15.35
2023-05-21T10:05:59.819Z,16.38
2023-05-21T10:09:05.775Z,16.23
2023-05-21T10:12:11.229Z,15.32
2023-05-21T10:15:17.222Z,15.02
2023-05-21T10:18:33.395Z,16.55
2023-05-21T10:21:37.117Z,16.23
2023-05-21T10:24:43.472Z,14.63
2023-05-21T10:27:45.293Z,14.98
2023-05-21T10:30:50.284Z,16.38
2023-05-21T10:33:53.742Z,14.65
2023-05-21T10:37:03.005Z,14.70
2023-05-21T10:40:05.001Z,15.38
2023-05-21T10:43:41.384Z,15.35
2023-05-21T10:46:58.268Z,14.88
2023-05-21T10:50:40.767Z,15.65
2023-05-21T10:54:01.313Z,14.30
2023-05-21T10:57:20.367Z,14.55
2023-05-21T11:00:22.350Z,14.05
2023-05-21T11:03:25.410Z,15.95
2023-05-21T11:06:27.264Z,15.15
2023-05-21T11:09:29.214Z,15.10
2023-05-21T11:12:34.905Z,15.15
2023-05-21T11:18:59.562Z,13.70
2023-05-21T11:22:01.231Z,16.20
2023-05-21T11:25:03.471Z,18.17
2023-05-21T11:28:16.351Z,15.52
2023-05-21T11:31:26.979Z,15.10
2023-05-21T11:34:39.437Z,13.60
2023-05-21T11:37:41.874Z,15.85
2023-05-21T11:40:55.998Z,16.77
2023-05-21T11:44:01.368Z,14.95
2023-05-21T11:47:03.456Z,15.25
2023-05-21T11:50:13.145Z,15.52
2023-05-21T11:53:17.840Z,14.70
2023-05-21T11:56:20.349Z,13.37
2023-05-21T11:59:33.386Z,14.05
2023-05-21T12:02:35.095Z,14.15
2023-05-21T12:05:53.857Z,12.50
2023-05-21T12:08:58.160Z,13.30
2023-05-21T12:12:00.785Z,12.55
2023-05-21T12:15:03.186Z,12.85
2023-05-21T12:18:05.692Z,12.70
2023-05-21T12:21:09.658Z,13.23
2023-05-21T12:27:22.958Z,12.43
2023-05-21T12:30:25.821Z,13.80
2023-05-21T12:33:36.654Z,12.25
2023-05-21T12:36:39.683Z,13.45
2023-05-21T12:39:49.382Z,13.35
2023-05-21T12:42:54.711Z,11.90
2023-05-21T12:45:56.843Z,13.73
2023-05-21T12:48:58.852Z,12.90
2023-05-21T12:52:02.852Z,14.38
2023-05-21T12:55:05.543Z,11.70
2023-05-21T12:58:15.089Z,11.63
2023-05-21T13:01:18.920Z,12.23
2023-05-21T13:04:29.976Z,13.38
2023-05-21T13:07:33.581Z,11.73
2023-05-21T13:10:41.258Z,11.93
2023-05-21T13:13:44.735Z,11.93
2023-05-21T13:16:55.658Z,11.63
2023-05-21T13:20:21.641Z,12.23
2023-05-21T13:23:25.823Z,11.88
2023-05-21T13:26:35.061Z,12.27
2023-05-21T13:29:38.115Z,10.73
2023-05-21T13:32:41.069Z,11.57
2023-05-21T13:35:51.070Z,10.50
2023-05-21T13:38:52.772Z,12.02
2023-05-21T13:42:00.590Z,11.40
2023-05-21T13:45:02.313Z,12.20
2023-05-21T13:48:07.141Z,10.30
2023-05-21T13:51:11.687Z,11.10
2023-05-21T13:54:15.893Z,11.18
2023-05-21T13:57:17.715Z,10.77
2023-05-21T14:00:22.477Z,11.70
2023-05-21T14:03:27.534Z,10.75
2023-05-21T14:06:29.167Z,10.32
2023-05-21T14:09:31.421Z,10.13
2023-05-21T14:12:48.538Z,11.70
2023-05-21T14:15:51.820Z,11.05
2023-05-21T14:19:05.743Z,9.80
2023-05-21T14:22:10.857Z,10.05
2023-05-21T14:25:12.404Z,10.40
2023-05-21T14:28:14.041Z,10.38
2023-05-21T14:34:34.618Z,11.07
2023-05-21T14:37:36.324Z,9.73
2023-05-21T14:40:38.946Z,8.77
2023-05-21T14:43:43.573Z,9.88
2023-05-21T14:46:49.015Z,9.70
2023-05-21T14:49:57.798Z,9.52
2023-05-21T14:52:59.351Z,10.15
2023-05-21T14:56:04.189Z,11.65
2023-05-21T14:59:07.996Z,10.23
2023-05-21T15:02:09.595Z,10.07
2023-05-21T15:05:11.252Z,9.27
2023-05-21T15:08:25.433Z,9.75
2023-05-21T15:11:27.137Z,10.07
2023-05-21T15:14:28.745Z,9.32
2023-05-21T15:17:30.370Z,9.25
2023-05-21T15:20:35.153Z,10.15
2023-05-21T15:23:36.983Z,9.35
2023-05-21T15:26:41.619Z,10.10
2023-05-21T15:29:45.678Z,9.98
2023-05-21T15:32:47.227Z,9.38
2023-05-21T15:39:05.934Z,9.30
2023-05-21T15:42:09.949Z,10.68
2023-05-21T15:45:17.686Z,13.02
2023-05-21T15:48:23.102Z,8.98
2023-05-21T15:54:41.221Z,9.13
2023-05-21T15:57:42.801Z,9.75
2023-05-21T16:00:46.100Z,9.88
2023-05-21T16:03:52.825Z,10.93
2023-05-21T16:10:19.080Z,9.50
2023-05-21T16:13:21.125Z,9.70
2023-05-21T16:22:46.631Z,9.43
2023-05-21T16:25:48.297Z,9.68
2023-05-21T16:28:49.921Z,11.20
2023-05-21T16:31:51.569Z,10.13
2023-05-21T16:35:06.021Z,11.07
2023-05-21T16:38:10.401Z,10.32
2023-05-21T16:41:14.809Z,9.43
2023-05-21T16:44:19.209Z,10.10
2023-05-21T16:47:31.148Z,9.70
2023-05-21T16:50:33.652Z,9.35
2023-05-21T16:53:41.335Z,9.85
2023-05-21T16:56:45.139Z,9.18
2023-05-21T16:59:49.797Z,9.52
2023-05-21T17:02:51.482Z,10.30
2023-05-21T17:05:53.104Z,9.80
2023-05-21T17:09:00.238Z,10.98
2023-05-21T17:12:08.922Z,9.30
2023-05-21T17:15:17.677Z,10.68
2023-05-21T17:18:25.437Z,9.65
2023-05-21T17:21:27.294Z,10.10
2023-05-21T17:24:29.022Z,9.45
2023-05-21T17:27:30.763Z,9.00
2023-05-21T17:30:32.337Z,10.73
2023-05-21T17:33:34.132Z,9.68
2023-05-21T17:36:41.756Z,10.35
2023-05-21T17:39:44.191Z,10.55
2023-05-21T17:42:52.989Z,10.18
2023-05-21T17:45:54.638Z,9.15
2023-05-21T17:48:58.379Z,10.48
2023-05-21T17:52:02.751Z,9.07
2023-05-21T17:58:20.052Z,10.77
2023-05-21T18:01:27.514Z,9.23
2023-05-21T18:04:31.562Z,11.43
2023-05-21T18:07:45.535Z,10.63
2023-05-21T18:14:12.422Z,9.93
2023-05-21T18:20:30.166Z,9.80
2023-05-21T18:23:32.245Z,10.57
2023-05-21T18:26:43.582Z,10.23
2023-05-21T18:29:46.844Z,9.63
2023-05-21T18:32:54.670Z,9.75
2023-05-21T18:35:56.331Z,10.18
2023-05-21T18:38:57.951Z,9.45
2023-05-21T18:42:11.991Z,10.38
2023-05-21T18:45:17.491Z,9.82
2023-05-21T18:48:19.197Z,9.60
2023-05-21T18:51:22.993Z,10.43
2023-05-21T18:54:26.675Z,9.68
2023-05-21T18:57:28.332Z,10.43
2023-05-21T19:00:30.071Z,9.88
2023-05-21T19:03:32.165Z,10.00
2023-05-21T19:06:35.582Z,9.73
2023-05-21T19:09:39.279Z,10.27
2023-05-21T19:12:42.387Z,10.57
2023-05-21T19:15:52.940Z,10.23
2023-05-21T19:18:54.565Z,10.75
2023-05-21T19:22:02.546Z,9.77
2023-05-21T19:25:04.672Z,9.85
2023-05-21T19:28:08.619Z,9.43
2023-05-21T19:34:36.632Z,10.23
2023-05-21T19:40:53.872Z,9.98
2023-05-21T19:43:57.810Z,10.80
2023-05-21T19:47:08.959Z,9.32
2023-05-21T19:50:11.778Z,10.95
2023-05-21T19:53:16.514Z,10.95
2023-05-21T19:56:18.181Z,10.15
2023-05-21T19:59:26.317Z,10.05
2023-05-21T20:02:30.501Z,13.40
2023-05-21T20:05:32.207Z,10.57
2023-05-21T20:08:34.026Z,10.43
2023-05-21T20:11:36.116Z,10.60
2023-05-21T20:15:15.722Z,9.57
2023-05-21T20:18:25.016Z,9.70
2023-05-21T20:21:31.604Z,10.20
2023-05-21T20:24:43.439Z,10.45
2023-05-21T20:27:45.350Z,10.10
2023-05-21T20:30:57.389Z,10.82
2023-05-21T20:33:59.070Z,10.13
2023-05-21T20:37:00.758Z,9.93
2023-05-21T20:40:02.416Z,10.77
2023-05-21T20:43:22.015Z,11.88
2023-05-21T20:46:25.668Z,9.95
2023-05-21T20:49:33.671Z,10.38
2023-05-21T20:52:38.530Z,10.52
2023-05-21T20:55:46.513Z,11.02
2023-05-21T20:58:48.615Z,10.35
2023-05-21T21:01:50.581Z,10.27
2023-05-21T21:04:53.852Z,10.77
2023-05-21T21:08:02.612Z,9.65
2023-05-21T21:11:04.500Z,10.68
2023-05-21T21:14:21.127Z,9.82
2023-05-21T21:17:24.426Z,10.13
2023-05-21T21:20:29.184Z,9.63
2023-05-21T21:23:31.541Z,9.95
2023-05-21T21:26:36.134Z,10.52
2023-05-21T21:29:46.760Z,9.20
2023-05-21T21:32:51.771Z,10.02
2023-05-21T21:36:03.571Z,10.63
2023-05-21T21:39:05.193Z,11.20
2023-05-21T21:42:07.021Z,10.23
2023-05-21T21:45:10.165Z,9.38
2023-05-21T21:48:11.782Z,9.68
2023-05-21T21:51:14.174Z,9.75
2023-05-21T21:54:18.825Z,9.35
2023-05-21T21:57:20.443Z,9.52
2023-05-21T22:00:26.349Z,10.15
2023-05-21T22:03:34.297Z,10.13
2023-05-21T22:06:38.929Z,10.15
2023-05-21T22:09:40.606Z,10.00
2023-05-21T22:12:43.342Z,9.90
2023-05-21T22:15:49.144Z,9.85
2023-05-21T22:18:54.057Z,9.32
2023-05-21T22:22:03.064Z,9.80
2023-05-21T22:25:04.999Z,10.55
2023-05-21T22:28:12.147Z,11.05
2023-05-21T22:31:13.813Z,9.70
2023-05-21T22:34:17.527Z,10.85
2023-05-21T22:37:20.321Z,10.80
2023-05-21T22:40:28.322Z,9.43
2023-05-21T22:43:32.663Z,11.15
2023-05-21T22:46:35.544Z,10.45
2023-05-21T22:49:38.158Z,9.82
2023-05-21T22:52:49.203Z,9.38
2023-05-21T22:55:51.648Z,10.15
2023-05-21T22:58:56.934Z,9.73
2023-05-21T23:01:59.129Z,10.55
2023-05-21T23:05:01.016Z,10.27
2023-05-21T23:08:05.739Z,11.13
2023-05-21T23:11:07.538Z,10.18
2023-05-21T23:14:16.838Z,9.85
2023-05-21T23:17:21.725Z,9.68
2023-05-21T23:23:55.496Z,10.05
2023-05-21T23:27:01.944Z,10.02
2023-05-21T23:30:14.297Z,10.93
2023-05-21T23:33:16.689Z,10.88
2023-05-21T23:36:24.486Z,10.30
2023-05-21T23:39:26.980Z,10.63
2023-05-21T23:42:30.688Z,9.93
2023-05-21T23:45:35.502Z,9.88
2023-05-21T23:48:37.221Z,11.05
2023-05-21T23:51:39.346Z,9.77
2023-05-21T23:54:41.573Z,9.75
2023-05-21T23:57:43.270Z,10.55
